sensor_id;sensor_type;location;lat;lon;timestamp;P1;P4;P2;P0;N10;N4;N25;N1;N05;TS
82310;SPS30;72015;51.330;12.316;2023-08-21T00:03:49;6.90;;6.34;;;;;;;
82310;SPS30;72015;51.330;12.316;2023-08-21T00:07:53;6.90;;6.34;;;;;;;
82310;SPS30;72015;51.330;12.316;2023-08-21T00:11:57;6.90;;6.34;;;;;;;
82310;SPS30;72015;51.330;12.316;2023-08-21T00:16:01;5.16;;5.16;;;;;;;
82310;SPS30;72015;51.330;12.316;2023-08-21T00:20:05;5.16;;5.16;;;;;;;
82310;SPS30;72015;51.330;12.316;2023-08-21T00:24:09;5.78;;5.78;;;;;;;
82310;SPS30;72015;51.330;12.316;2023-08-21T00:28:13;5.78;;5.78;;;;;;;
82310;SPS30;72015;51.330;12.316;2023-08-21T00:32:17;5.78;;5.78;;;;;;;
82310;SPS30;72015;51.330;12.316;2023-08-21T00:36:21;5.61;;5.41;;;;;;;
82310;SPS30;72015;51.330;12.316;2023-08-21T00:40:25;5.61;;5.41;;;;;;;
82310;SPS30;72015;51.330;12.316;2023-08-21T00:44:29;7.05;;6.59;;;;;;;
82310;SPS30;72015;51.330;12.316;2023-08-21T00:48:33;7.05;;6.59;;;;;;;
82310;SPS30;72015;51.330;12.316;2023-08-21T00:52:38;7.05;;6.59;;;;;;;
82310;SPS30;72015;51.330;12.316;2023-08-21T00:56:41;6.02;;5.86;;;;;;;
82310;SPS30;72015;51.330;12.316;2023-08-21T01:00:45;6.02;;5.86;;;;;;;
82310;SPS30;72015;51.330;12.316;2023-08-21T01:04:49;5.08;;5.08;;;;;;;
82310;SPS30;72015;51.330;12.316;2023-08-21T01:08:57;5.08;;5.08;;;;;;;
82310;SPS30;72015;51.330;12.316;2023-08-21T01:13:01;5.08;;5.08;;;;;;;
82310;SPS30;72015;51.330;12.316;2023-08-21T01:17:02;5.97;;5.97;;;;;;;
82310;SPS30;72015;51.330;12.316;2023-08-21T01:21:05;5.97;;5.97;;;;;;;
82310;SPS30;72015;51.330;12.316;2023-08-21T01:25:09;5.27;;5.27;;;;;;;
82310;SPS30;72015;51.330;12.316;2023-08-21T01:29:13;5.27;;5.27;;;;;;;
82310;SPS30;72015;51.330;12.316;2023-08-21T01:33:17;7.00;;6.78;;;;;;;
82310;SPS30;72015;51.330;12.316;2023-08-21T01:37:22;7.00;;6.78;;;;;;;
82310;SPS30;72015;51.330;12.316;2023-08-21T01:41:25;7.00;;6.78;;;;;;;
82310;SPS30;72015;51.330;12.316;2023-08-21T01:45:29;5.79;;5.50;;;;;;;
82310;SPS30;72015;51.330;12.316;2023-08-21T01:49:33;5.79;;5.50;;;;;;;
82310;SPS30;72015;51.330;12.316;2023-08-21T01:53:37;6.22;;5.83;;;;;;;
82310;SPS30;72015;51.330;12.316;2023-08-21T01:57:41;6.22;;5.83;;;;;;;
82310;SPS30;72015;51.330;12.316;2023-08-21T02:01:45;6.22;;5.83;;;;;;;
82310;SPS30;72015;51.330;12.316;2023-08-21T02:05:49;7.66;;7.11;;;;;;;
82310;SPS30;72015;51.330;12.316;2023-08-21T02:09:53;7.66;;7.11;;;;;;;
82310;SPS30;72015;51.330;12.316;2023-08-21T02:13:57;6.50;;6.50;;;;;;;
82310;SPS30;72015;51.330;12.316;2023-08-21T02:18:01;6.50;;6.50;;;;;;;
82310;SPS30;72015;51.330;12.316;2023-08-21T02:22:05;6.50;;6.50;;;;;;;
82310;SPS30;72015;51.330;12.316;2023-08-21T02:26:09;6.67;;6.67;;;;;;;
82310;SPS30;72015;51.330;12.316;2023-08-21T02:30:13;6.67;;6.67;;;;;;;
82310;SPS30;72015;51.330;12.316;2023-08-21T02:34:17;6.43;;6.43;;;;;;;
82310;SPS30;72015;51.330;12.316;2023-08-21T02:38:21;6.43;;6.43;;;;;;;
82310;SPS30;72015;51.330;12.316;2023-08-21T02:42:25;6.43;;6.43;;;;;;;
82310;SPS30;72015;51.330;12.316;2023-08-21T02:46:29;6.37;;6.37;;;;;;;
82310;SPS30;72015;51.330;12.316;2023-08-21T02:50:33;6.37;;6.37;;;;;;;
82310;SPS30;72015;51.330;12.316;2023-08-21T02:54:37;5.45;;5.45;;;;;;;
82310;SPS30;72015;51.330;12.316;2023-08-21T02:58:41;5.45;;5.45;;;;;;;
82310;SPS30;72015;51.330;12.316;2023-08-21T03:02:45;5.45;;5.45;;;;;;;
82310;SPS30;72015;51.330;12.316;2023-08-21T03:06:49;7.40;;6.88;;;;;;;
82310;SPS30;72015;51.330;12.316;2023-08-21T03:10:53;7.40;;6.88;;;;;;;
82310;SPS30;72015;51.330;12.316;2023-08-21T03:14:58;7.11;;6.98;;;;;;;
82310;SPS30;72015;51.330;12.316;2023-08-21T03:19:01;7.11;;6.98;;;;;;;
82310;SPS30;72015;51.330;12.316;2023-08-21T03:23:06;6.61;;6.61;;;;;;;
82310;SPS30;72015;51.330;12.316;2023-08-21T03:27:10;6.61;;6.61;;;;;;;
82310;SPS30;72015;51.330;12.316;2023-08-21T03:31:14;6.61;;6.61;;;;;;;
82310;SPS30;72015;51.330;12.316;2023-08-21T03:35:18;6.95;;6.95;;;;;;;
82310;SPS30;72015;51.330;12.316;2023-08-21T03:39:22;6.95;;6.95;;;;;;;
82310;SPS30;72015;51.330;12.316;2023-08-21T03:43:26;7.17;;7.17;;;;;;;
82310;SPS30;72015;51.330;12.316;2023-08-21T03:47:30;7.17;;7.17;;;;;;;
82310;SPS30;72015;51.330;12.316;2023-08-21T03:51:34;7.17;;7.17;;;;;;;
82310;SPS30;72015;51.330;12.316;2023-08-21T03:55:38;9.30;;8.63;;;;;;;
82310;SPS30;72015;51.330;12.316;2023-08-21T03:59:42;9.30;;8.63;;;;;;;
82310;SPS30;72015;51.330;12.316;2023-08-21T04:03:46;9.25;;8.38;;;;;;;
82310;SPS30;72015;51.330;12.316;2023-08-21T04:07:50;9.25;;8.38;;;;;;;
82310;SPS30;72015;51.330;12.316;2023-08-21T04:11:54;9.25;;8.38;;;;;;;
82310;SPS30;72015;51.330;12.316;2023-08-21T04:15:58;6.76;;6.76;;;;;;;
82310;SPS30;72015;51.330;12.316;2023-08-21T04:20:02;6.76;;6.76;;;;;;;
82310;SPS30;72015;51.330;12.316;2023-08-21T04:24:06;7.63;;7.27;;;;;;;
82310;SPS30;72015;51.330;12.316;2023-08-21T04:28:10;7.63;;7.27;;;;;;;
82310;SPS30;72015;51.330;12.316;2023-08-21T04:32:14;7.63;;7.27;;;;;;;
82310;SPS30;72015;51.330;12.316;2023-08-21T04:36:18;6.77;;6.77;;;;;;;
82310;SPS30;72015;51.330;12.316;2023-08-21T04:40:23;6.77;;6.77;;;;;;;
82310;SPS30;72015;51.330;12.316;2023-08-21T04:44:26;7.89;;7.61;;;;;;;
82310;SPS30;72015;51.330;12.316;2023-08-21T04:48:30;7.89;;7.61;;;;;;;
82310;SPS30;72015;51.330;12.316;2023-08-21T04:52:34;7.89;;7.61;;;;;;;
82310;SPS30;72015;51.330;12.316;2023-08-21T04:56:38;7.38;;7.19;;;;;;;
82310;SPS30;72015;51.330;12.316;2023-08-21T05:00:44;7.38;;7.19;;;;;;;
82310;SPS30;72015;51.330;12.316;2023-08-21T05:04:46;6.80;;6.74;;;;;;;
82310;SPS30;72015;51.330;12.316;2023-08-21T05:08:50;6.80;;6.74;;;;;;;
82310;SPS30;72015;51.330;12.316;2023-08-21T05:12:56;6.80;;6.74;;;;;;;
82310;SPS30;72015;51.330;12.316;2023-08-21T05:16:58;10.41;;9.97;;;;;;;
82310;SPS30;72015;51.330;12.316;2023-08-21T05:21:02;10.41;;9.97;;;;;;;
82310;SPS30;72015;51.330;12.316;2023-08-21T05:25:06;8.19;;8.19;;;;;;;
82310;SPS30;72015;51.330;12.316;2023-08-21T05:29:10;8.19;;8.19;;;;;;;
82310;SPS30;72015;51.330;12.316;2023-08-21T05:33:14;12.90;;12.10;;;;;;;
82310;SPS30;72015;51.330;12.316;2023-08-21T05:37:18;12.90;;12.10;;;;;;;
82310;SPS30;72015;51.330;12.316;2023-08-21T05:41:22;12.90;;12.10;;;;;;;
82310;SPS30;72015;51.330;12.316;2023-08-21T05:45:26;8.34;;8.34;;;;;;;
82310;SPS30;72015;51.330;12.316;2023-08-21T05:49:30;8.34;;8.34;;;;;;;
82310;SPS30;72015;51.330;12.316;2023-08-21T05:53:34;12.57;;11.52;;;;;;;
82310;SPS30;72015;51.330;12.316;2023-08-21T05:57:38;12.57;;11.52;;;;;;;
82310;SPS30;72015;51.330;12.316;2023-08-21T06:01:42;12.57;;11.52;;;;;;;
82310;SPS30;72015;51.330;12.316;2023-08-21T06:05:47;10.22;;10.16;;;;;;;
82310;SPS30;72015;51.330;12.316;2023-08-21T06:09:50;10.22;;10.16;;;;;;;
82310;SPS30;72015;51.330;12.316;2023-08-21T06:13:54;11.97;;10.65;;;;;;;
82310;SPS30;72015;51.330;12.316;2023-08-21T06:17:58;11.97;;10.65;;;;;;;
82310;SPS30;72015;51.330;12.316;2023-08-21T06:22:02;11.97;;10.65;;;;;;;
82310;SPS30;72015;51.330;12.316;2023-08-21T06:26:06;15.28;;12.31;;;;;;;
82310;SPS30;72015;51.330;12.316;2023-08-21T06:30:10;15.28;;12.31;;;;;;;
82310;SPS30;72015;51.330;12.316;2023-08-21T06:34:14;9.80;;9.12;;;;;;;
82310;SPS30;72015;51.330;12.316;2023-08-21T06:38:18;9.80;;9.12;;;;;;;
82310;SPS30;72015;51.330;12.316;2023-08-21T06:42:22;9.80;;9.12;;;;;;;
82310;SPS30;72015;51.330;12.316;2023-08-21T06:46:26;8.06;;8.06;;;;;;;
82310;SPS30;72015;51.330;12.316;2023-08-21T06:50:30;8.06;;8.06;;;;;;;
82310;SPS30;72015;51.330;12.316;2023-08-21T06:54:34;8.27;;8.27;;;;;;;
82310;SPS30;72015;51.330;12.316;2023-08-21T06:58:38;8.27;;8.27;;;;;;;
82310;SPS30;72015;51.330;12.316;2023-08-21T07:02:42;8.27;;8.27;;;;;;;
82310;SPS30;72015;51.330;12.316;2023-08-21T07:06:46;10.22;;9.32;;;;;;;
82310;SPS30;72015;51.330;12.316;2023-08-21T07:10:50;10.22;;9.32;;;;;;;
82310;SPS30;72015;51.330;12.316;2023-08-21T07:14:54;7.99;;7.99;;;;;;;
82310;SPS30;72015;51.330;12.316;2023-08-21T07:18:58;7.99;;7.99;;;;;;;
82310;SPS30;72015;51.330;12.316;2023-08-21T07:23:02;10.11;;9.63;;;;;;;
82310;SPS30;72015;51.330;12.316;2023-08-21T07:27:06;10.11;;9.63;;;;;;;
82310;SPS30;72015;51.330;12.316;2023-08-21T07:31:10;10.11;;9.63;;;;;;;
82310;SPS30;72015;51.330;12.316;2023-08-21T07:35:14;8.62;;8.62;;;;;;;
82310;SPS30;72015;51.330;12.316;2023-08-21T07:39:18;8.62;;8.62;;;;;;;
82310;SPS30;72015;51.330;12.316;2023-08-21T07:43:22;9.52;;9.52;;;;;;;
82310;SPS30;72015;51.330;12.316;2023-08-21T07:47:26;9.52;;9.52;;;;;;;
82310;SPS30;72015;51.330;12.316;2023-08-21T07:51:30;9.52;;9.52;;;;;;;
82310;SPS30;72015;51.330;12.316;2023-08-21T07:55:34;10.24;;10.24;;;;;;;
82310;SPS30;72015;51.330;12.316;2023-08-21T07:59:38;10.24;;10.24;;;;;;;
82310;SPS30;72015;51.330;12.316;2023-08-21T08:03:42;10.30;;9.48;;;;;;;
82310;SPS30;72015;51.330;12.316;2023-08-21T08:07:46;10.30;;9.48;;;;;;;
82310;SPS30;72015;51.330;12.316;2023-08-21T08:11:50;10.30;;9.48;;;;;;;
82310;SPS30;72015;51.330;12.316;2023-08-21T08:15:54;10.62;;10.30;;;;;;;
82310;SPS30;72015;51.330;12.316;2023-08-21T08:19:58;10.62;;10.30;;;;;;;
82310;SPS30;72015;51.330;12.316;2023-08-21T08:24:02;14.02;;13.57;;;;;;;
82310;SPS30;72015;51.330;12.316;2023-08-21T08:28:06;14.02;;13.57;;;;;;;
82310;SPS30;72015;51.330;12.316;2023-08-21T08:32:10;14.02;;13.57;;;;;;;
82310;SPS30;72015;51.330;12.316;2023-08-21T08:36:14;78.36;;75.65;;;;;;;
82310;SPS30;72015;51.330;12.316;2023-08-21T08:40:18;78.36;;75.65;;;;;;;
82310;SPS30;72015;51.330;12.316;2023-08-21T08:44:23;11.12;;9.86;;;;;;;
82310;SPS30;72015;51.330;12.316;2023-08-21T08:48:26;11.12;;9.86;;;;;;;
82310;SPS30;72015;51.330;12.316;2023-08-21T08:52:31;11.12;;9.86;;;;;;;
82310;SPS30;72015;51.330;12.316;2023-08-21T08:56:34;7.48;;7.48;;;;;;;
82310;SPS30;72015;51.330;12.316;2023-08-21T09:00:38;7.48;;7.48;;;;;;;
82310;SPS30;72015;51.330;12.316;2023-08-21T09:04:42;6.83;;6.83;;;;;;;
82310;SPS30;72015;51.330;12.316;2023-08-21T09:12:50;6.83;;6.83;;;;;;;
82310;SPS30;72015;51.330;12.316;2023-08-21T09:16:58;10.67;;9.96;;;;;;;
82310;SPS30;72015;51.330;12.316;2023-08-21T09:20:59;10.67;;9.96;;;;;;;
82310;SPS30;72015;51.330;12.316;2023-08-21T09:25:05;7.54;;7.54;;;;;;;
82310;SPS30;72015;51.330;12.316;2023-08-21T09:29:06;7.54;;7.54;;;;;;;
82310;SPS30;72015;51.330;12.316;2023-08-21T09:33:10;62.43;;61.73;;;;;;;
82310;SPS30;72015;51.330;12.316;2023-08-21T09:37:16;62.43;;61.73;;;;;;;
82310;SPS30;72015;51.330;12.316;2023-08-21T09:41:19;62.43;;61.73;;;;;;;
82310;SPS30;72015;51.330;12.316;2023-08-21T09:45:22;7.34;;6.61;;;;;;;
82310;SPS30;72015;51.330;12.316;2023-08-21T09:49:26;7.34;;6.61;;;;;;;
82310;SPS30;72015;51.330;12.316;2023-08-21T09:53:30;5.97;;5.97;;;;;;;
82310;SPS30;72015;51.330;12.316;2023-08-21T09:57:34;5.97;;5.97;;;;;;;
82310;SPS30;72015;51.330;12.316;2023-08-21T10:01:38;5.97;;5.97;;;;;;;
82310;SPS30;72015;51.330;12.316;2023-08-21T10:05:42;5.42;;5.42;;;;;;;
82310;SPS30;72015;51.330;12.316;2023-08-21T10:09:46;5.42;;5.42;;;;;;;
82310;SPS30;72015;51.330;12.316;2023-08-21T10:13:50;6.22;;5.88;;;;;;;
82310;SPS30;72015;51.330;12.316;2023-08-21T10:17:54;6.22;;5.88;;;;;;;
82310;SPS30;72015;51.330;12.316;2023-08-21T10:21:58;6.22;;5.88;;;;;;;
82310;SPS30;72015;51.330;12.316;2023-08-21T10:26:05;6.82;;6.04;;;;;;;
82310;SPS30;72015;51.330;12.316;2023-08-21T10:34:11;5.85;;5.85;;;;;;;
82310;SPS30;72015;51.330;12.316;2023-08-21T10:38:15;5.85;;5.85;;;;;;;
82310;SPS30;72015;51.330;12.316;2023-08-21T10:42:18;5.85;;5.85;;;;;;;
82310;SPS30;72015;51.330;12.316;2023-08-21T10:46:22;6.29;;5.46;;;;;;;
82310;SPS30;72015;51.330;12.316;2023-08-21T10:50:26;6.29;;5.46;;;;;;;
82310;SPS30;72015;51.330;12.316;2023-08-21T10:54:42;5.72;;5.49;;;;;;;
82310;SPS30;72015;51.330;12.316;2023-08-21T10:58:44;5.72;;5.49;;;;;;;
82310;SPS30;72015;51.330;12.316;2023-08-21T11:02:39;5.72;;5.49;;;;;;;
82310;SPS30;72015;51.330;12.316;2023-08-21T11:06:42;5.95;;5.45;;;;;;;
82310;SPS30;72015;51.330;12.316;2023-08-21T11:10:46;5.95;;5.45;;;;;;;
82310;SPS30;72015;51.330;12.316;2023-08-21T11:14:50;4.68;;4.68;;;;;;;
82310;SPS30;72015;51.330;12.316;2023-08-21T11:18:54;4.68;;4.68;;;;;;;
82310;SPS30;72015;51.330;12.316;2023-08-21T11:22:59;4.68;;4.68;;;;;;;
82310;SPS30;72015;51.330;12.316;2023-08-21T11:27:05;4.09;;4.09;;;;;;;
82310;SPS30;72015;51.330;12.316;2023-08-21T11:31:06;4.09;;4.09;;;;;;;
82310;SPS30;72015;51.330;12.316;2023-08-21T11:35:10;3.30;;3.30;;;;;;;
82310;SPS30;72015;51.330;12.316;2023-08-21T11:39:14;3.30;;3.30;;;;;;;
82310;SPS30;72015;51.330;12.316;2023-08-21T11:43:18;3.88;;3.88;;;;;;;
82310;SPS30;72015;51.330;12.316;2023-08-21T11:47:23;3.88;;3.88;;;;;;;
82310;SPS30;72015;51.330;12.316;2023-08-21T11:51:26;3.88;;3.88;;;;;;;
82310;SPS30;72015;51.330;12.316;2023-08-21T11:55:30;4.27;;4.27;;;;;;;
82310;SPS30;72015;51.330;12.316;2023-08-21T11:59:34;4.27;;4.27;;;;;;;
82310;SPS30;72015;51.330;12.316;2023-08-21T12:03:39;5.46;;5.20;;;;;;;
82310;SPS30;72015;51.330;12.316;2023-08-21T14:51:48;0.00;;0.00;;;;;;;
82310;SPS30;72015;51.330;12.316;2023-08-21T14:55:51;16.67;;14.45;;;;;;;
82310;SPS30;72015;51.330;12.316;2023-08-21T14:59:55;16.67;;14.45;;;;;;;
82310;SPS30;72015;51.330;12.316;2023-08-21T15:03:59;5.30;;5.30;;;;;;;
82310;SPS30;72015;51.330;12.316;2023-08-21T15:07:36;0.00;;0.00;;;;;;;
82310;SPS30;72015;51.330;12.316;2023-08-21T15:12:00;4.91;;4.91;;;;;;;
82310;SPS30;72015;51.330;12.316;2023-08-21T15:16:24;3.89;;3.89;;;;;;;
82310;SPS30;72015;51.330;12.316;2023-08-21T15:20:48;3.89;;3.89;;;;;;;
82310;SPS30;72015;51.330;12.316;2023-08-21T15:25:12;3.89;;3.89;;;;;;;
82310;SPS30;72015;51.330;12.316;2023-08-21T15:29:36;5.18;;5.00;;;;;;;
82310;SPS30;72015;51.330;12.316;2023-08-21T15:34:00;5.18;;5.00;;;;;;;
82310;SPS30;72015;51.330;12.316;2023-08-21T15:38:24;5.57;;5.57;;;;;;;
82310;SPS30;72015;51.330;12.316;2023-08-21T15:42:48;5.57;;5.57;;;;;;;
82310;SPS30;72015;51.330;12.316;2023-08-21T15:47:12;4.58;;4.58;;;;;;;
82310;SPS30;72015;51.330;12.316;2023-08-21T15:51:37;4.58;;4.58;;;;;;;
82310;SPS30;72015;51.330;12.316;2023-08-21T15:56:01;4.58;;4.58;;;;;;;
82310;SPS30;72015;51.330;12.316;2023-08-21T16:00:25;18.33;;17.27;;;;;;;
82310;SPS30;72015;51.330;12.316;2023-08-21T16:04:49;18.33;;17.27;;;;;;;
82310;SPS30;72015;51.330;12.316;2023-08-21T16:09:13;5.70;;5.70;;;;;;;
82310;SPS30;72015;51.330;12.316;2023-08-21T16:13:37;5.70;;5.70;;;;;;;
82310;SPS30;72015;51.330;12.316;2023-08-21T16:18:01;5.25;;5.25;;;;;;;
82310;SPS30;72015;51.330;12.316;2023-08-21T16:22:25;5.25;;5.25;;;;;;;
82310;SPS30;72015;51.330;12.316;2023-08-21T16:26:49;4.19;;4.19;;;;;;;
82310;SPS30;72015;51.330;12.316;2023-08-21T16:31:16;4.19;;4.19;;;;;;;
82310;SPS30;72015;51.330;12.316;2023-08-21T16:35:37;4.19;;4.19;;;;;;;
82310;SPS30;72015;51.330;12.316;2023-08-21T16:40:01;4.87;;4.87;;;;;;;
82310;SPS30;72015;51.330;12.316;2023-08-21T16:44:25;4.87;;4.87;;;;;;;
82310;SPS30;72015;51.330;12.316;2023-08-21T16:48:49;8.12;;7.34;;;;;;;
82310;SPS30;72015;51.330;12.316;2023-08-21T16:53:13;8.12;;7.34;;;;;;;
82310;SPS30;72015;51.330;12.316;2023-08-21T16:57:37;4.78;;4.78;;;;;;;
82310;SPS30;72015;51.330;12.316;2023-08-21T17:02:01;4.78;;4.78;;;;;;;
82310;SPS30;72015;51.330;12.316;2023-08-21T17:06:26;4.46;;4.46;;;;;;;
82310;SPS30;72015;51.330;12.316;2023-08-21T17:10:49;4.46;;4.46;;;;;;;
82310;SPS30;72015;51.330;12.316;2023-08-21T17:15:13;4.46;;4.46;;;;;;;
82310;SPS30;72015;51.330;12.316;2023-08-21T17:19:37;5.20;;5.20;;;;;;;
82310;SPS30;72015;51.330;12.316;2023-08-21T17:24:01;5.20;;5.20;;;;;;;
82310;SPS30;72015;51.330;12.316;2023-08-21T17:28:25;4.87;;4.87;;;;;;;
82310;SPS30;72015;51.330;12.316;2023-08-21T17:32:49;4.87;;4.87;;;;;;;
82310;SPS30;72015;51.330;12.316;2023-08-21T17:37:13;4.29;;4.29;;;;;;;
82310;SPS30;72015;51.330;12.316;2023-08-21T17:41:37;4.29;;4.29;;;;;;;
82310;SPS30;72015;51.330;12.316;2023-08-21T17:46:01;4.29;;4.29;;;;;;;
82310;SPS30;72015;51.330;12.316;2023-08-21T17:50:25;5.08;;5.08;;;;;;;
82310;SPS30;72015;51.330;12.316;2023-08-21T17:54:49;5.08;;5.08;;;;;;;
82310;SPS30;72015;51.330;12.316;2023-08-21T17:59:13;6.20;;5.78;;;;;;;
82310;SPS30;72015;51.330;12.316;2023-08-21T18:03:37;6.20;;5.78;;;;;;;
82310;SPS30;72015;51.330;12.316;2023-08-21T18:08:01;10.61;;9.96;;;;;;;
82310;SPS30;72015;51.330;12.316;2023-08-21T18:12:25;10.61;;9.96;;;;;;;
82310;SPS30;72015;51.330;12.316;2023-08-21T18:16:49;97.96;;96.90;;;;;;;
82310;SPS30;72015;51.330;12.316;2023-08-21T18:21:13;97.96;;96.90;;;;;;;
82310;SPS30;72015;51.330;12.316;2023-08-21T18:25:37;97.96;;96.90;;;;;;;
82310;SPS30;72015;51.330;12.316;2023-08-21T18:30:01;5.87;;5.87;;;;;;;
82310;SPS30;72015;51.330;12.316;2023-08-21T18:34:25;5.87;;5.87;;;;;;;
82310;SPS30;72015;51.330;12.316;2023-08-21T18:38:49;4.91;;4.91;;;;;;;
82310;SPS30;72015;51.330;12.316;2023-08-21T18:43:13;4.91;;4.91;;;;;;;
82310;SPS30;72015;51.330;12.316;2023-08-21T18:47:37;6.01;;5.68;;;;;;;
82310;SPS30;72015;51.330;12.316;2023-08-21T18:52:01;6.01;;5.68;;;;;;;
82310;SPS30;72015;51.330;12.316;2023-08-21T18:56:25;5.48;;5.48;;;;;;;
82310;SPS30;72015;51.330;12.316;2023-08-21T19:00:49;5.48;;5.48;;;;;;;
82310;SPS30;72015;51.330;12.316;2023-08-21T19:05:13;5.48;;5.48;;;;;;;
82310;SPS30;72015;51.330;12.316;2023-08-21T19:09:37;7.44;;6.84;;;;;;;
82310;SPS30;72015;51.330;12.316;2023-08-21T19:14:01;7.44;;6.84;;;;;;;
82310;SPS30;72015;51.330;12.316;2023-08-21T19:18:25;5.74;;5.04;;;;;;;
82310;SPS30;72015;51.330;12.316;2023-08-21T19:22:49;5.74;;5.04;;;;;;;
82310;SPS30;72015;51.330;12.316;2023-08-21T19:27:13;4.62;;4.62;;;;;;;
82310;SPS30;72015;51.330;12.316;2023-08-21T19:31:37;4.62;;4.62;;;;;;;
82310;SPS30;72015;51.330;12.316;2023-08-21T19:36:01;4.62;;4.62;;;;;;;
82310;SPS30;72015;51.330;12.316;2023-08-21T19:40:25;3.79;;3.79;;;;;;;
82310;SPS30;72015;51.330;12.316;2023-08-21T19:44:49;3.79;;3.79;;;;;;;
82310;SPS30;72015;51.330;12.316;2023-08-21T19:49:13;4.66;;4.66;;;;;;;
82310;SPS30;72015;51.330;12.316;2023-08-21T19:53:37;4.66;;4.66;;;;;;;
82310;SPS30;72015;51.330;12.316;2023-08-21T19:58:01;6.05;;6.05;;;;;;;
82310;SPS30;72015;51.330;12.316;2023-08-21T20:02:25;6.05;;6.05;;;;;;;
82310;SPS30;72015;51.330;12.316;2023-08-21T20:06:49;5.99;;5.56;;;;;;;
82310;SPS30;72015;51.330;12.316;2023-08-21T20:11:13;5.99;;5.56;;;;;;;
82310;SPS30;72015;51.330;12.316;2023-08-21T20:15:37;5.99;;5.56;;;;;;;
82310;SPS30;72015;51.330;12.316;2023-08-21T20:20:01;4.48;;4.48;;;;;;;
82310;SPS30;72015;51.330;12.316;2023-08-21T20:24:25;4.48;;4.48;;;;;;;
82310;SPS30;72015;51.330;12.316;2023-08-21T20:28:49;4.53;;4.53;;;;;;;
82310;SPS30;72015;51.330;12.316;2023-08-21T20:33:13;4.53;;4.53;;;;;;;
82310;SPS30;72015;51.330;12.316;2023-08-21T20:37:37;3.95;;3.95;;;;;;;
82310;SPS30;72015;51.330;12.316;2023-08-21T20:42:01;3.95;;3.95;;;;;;;
82310;SPS30;72015;51.330;12.316;2023-08-21T20:46:25;3.99;;3.99;;;;;;;
82310;SPS30;72015;51.330;12.316;2023-08-21T20:50:49;3.99;;3.99;;;;;;;
82310;SPS30;72015;51.330;12.316;2023-08-21T20:55:13;3.99;;3.99;;;;;;;
82310;SPS30;72015;51.330;12.316;2023-08-21T20:59:37;37.75;;37.75;;;;;;;
82310;SPS30;72015;51.330;12.316;2023-08-21T21:04:01;37.75;;37.75;;;;;;;
82310;SPS30;72015;51.330;12.316;2023-08-21T21:08:25;6.37;;6.37;;;;;;;
82310;SPS30;72015;51.330;12.316;2023-08-21T21:12:49;6.37;;6.37;;;;;;;
82310;SPS30;72015;51.330;12.316;2023-08-21T21:17:13;6.05;;5.53;;;;;;;
82310;SPS30;72015;51.330;12.316;2023-08-21T21:21:37;6.05;;5.53;;;;;;;
82310;SPS30;72015;51.330;12.316;2023-08-21T21:26:01;6.05;;5.53;;;;;;;
82310;SPS30;72015;51.330;12.316;2023-08-21T21:30:25;3.63;;3.63;;;;;;;
82310;SPS30;72015;51.330;12.316;2023-08-21T21:34:49;3.63;;3.63;;;;;;;
82310;SPS30;72015;51.330;12.316;2023-08-21T21:39:13;3.07;;3.07;;;;;;;
82310;SPS30;72015;51.330;12.316;2023-08-21T21:43:37;3.07;;3.07;;;;;;;
82310;SPS30;72015;51.330;12.316;2023-08-21T21:48:01;4.38;;3.70;;;;;;;
82310;SPS30;72015;51.330;12.316;2023-08-21T21:52:25;4.38;;3.70;;;;;;;
82310;SPS30;72015;51.330;12.316;2023-08-21T21:56:49;3.21;;3.21;;;;;;;
82310;SPS30;72015;51.330;12.316;2023-08-21T22:01:13;3.21;;3.21;;;;;;;
82310;SPS30;72015;51.330;12.316;2023-08-21T22:05:37;3.21;;3.21;;;;;;;
82310;SPS30;72015;51.330;12.316;2023-08-21T22:10:01;3.23;;3.23;;;;;;;
82310;SPS30;72015;51.330;12.316;2023-08-21T22:14:25;3.23;;3.23;;;;;;;
82310;SPS30;72015;51.330;12.316;2023-08-21T22:18:49;4.75;;4.34;;;;;;;
82310;SPS30;72015;51.330;12.316;2023-08-21T22:23:13;4.75;;4.34;;;;;;;
82310;SPS30;72015;51.330;12.316;2023-08-21T22:27:37;2.69;;2.69;;;;;;;
82310;SPS30;72015;51.330;12.316;2023-08-21T22:32:01;2.69;;2.69;;;;;;;
82310;SPS30;72015;51.330;12.316;2023-08-21T22:36:25;4.28;;3.82;;;;;;;
82310;SPS30;72015;51.330;12.316;2023-08-21T22:40:49;4.28;;3.82;;;;;;;
82310;SPS30;72015;51.330;12.316;2023-08-21T22:45:13;4.28;;3.82;;;;;;;
82310;SPS30;72015;51.330;12.316;2023-08-21T22:49:37;3.57;;3.33;;;;;;;
82310;SPS30;72015;51.330;12.316;2023-08-21T22:54:01;3.57;;3.33;;;;;;;
82310;SPS30;72015;51.330;12.316;2023-08-21T22:58:25;3.06;;3.06;;;;;;;
82310;SPS30;72015;51.330;12.316;2023-08-21T23:02:49;3.06;;3.06;;;;;;;
82310;SPS30;72015;51.330;12.316;2023-08-21T23:07:13;4.09;;3.65;;;;;;;
82310;SPS30;72015;51.330;12.316;2023-08-21T23:11:37;4.09;;3.65;;;;;;;
82310;SPS30;72015;51.330;12.316;2023-08-21T23:16:01;4.09;;3.65;;;;;;;
82310;SPS30;72015;51.330;12.316;2023-08-21T23:20:25;3.70;;3.70;;;;;;;
82310;SPS30;72015;51.330;12.316;2023-08-21T23:24:50;3.70;;3.70;;;;;;;
82310;SPS30;72015;51.330;12.316;2023-08-21T23:29:14;3.38;;3.38;;;;;;;
82310;SPS30;72015;51.330;12.316;2023-08-21T23:33:38;3.38;;3.38;;;;;;;
82310;SPS30;72015;51.330;12.316;2023-08-21T23:38:02;3.60;;3.60;;;;;;;
82310;SPS30;72015;51.330;12.316;2023-08-21T23:42:26;3.60;;3.60;;;;;;;
82310;SPS30;72015;51.330;12.316;2023-08-21T23:46:50;3.36;;3.30;;;;;;;
82310;SPS30;72015;51.330;12.316;2023-08-21T23:51:14;3.36;;3.30;;;;;;;
82310;SPS30;72015;51.330;12.316;2023-08-21T23:55:38;3.36;;3.30;;;;;;;
